sensor_id;sensor_type;location;lat;lon;timestamp;P1;durP1;ratioP1;P2;durP2;ratioP2
18114;SDS011;9184;54.390;18.620;2022-12-18T00:00:28;74.47;;;36.20;;
18114;SDS011;9184;54.390;18.620;2022-12-18T00:00:58;78.57;;;38.40;;
18114;SDS011;9184;54.390;18.620;2022-12-18T00:01:29;103.90;;;40.93;;
18114;SDS011;9184;54.390;18.620;2022-12-18T00:02:01;83.38;;;39.75;;
18114;SDS011;9184;54.390;18.620;2022-12-18T00:02:33;83.65;;;39.50;;
18114;SDS011;9184;54.390;18.620;2022-12-18T00:03:04;82.67;;;38.87;;
18114;SDS011;9184;54.390;18.620;2022-12-18T00:03:34;81.93;;;38.57;;
18114;SDS011;9184;54.390;18.620;2022-12-18T00:04:07;78.75;;;40.25;;
18114;SDS011;9184;54.390;18.620;2022-12-18T00:04:38;86.47;;;40.78;;
18114;SDS011;9184;54.390;18.620;2022-12-18T00:05:08;78.17;;;39.30;;
18114;SDS011;9184;54.390;18.620;2022-12-18T00:05:45;75.43;;;37.50;;
18114;SDS011;9184;54.390;18.620;2022-12-18T00:06:16;80.32;;;38.90;;
18114;SDS011;9184;54.390;18.620;2022-12-18T00:06:47;85.03;;;40.60;;
18114;SDS011;9184;54.390;18.620;2022-12-18T00:07:18;81.57;;;40.88;;
18114;SDS011;9184;54.390;18.620;2022-12-18T00:07:49;75.67;;;40.50;;
18114;SDS011;9184;54.390;18.620;2022-12-18T00:08:19;91.50;;;40.67;;
18114;SDS011;9184;54.390;18.620;2022-12-18T00:08:51;81.38;;;40.58;;
18114;SDS011;9184;54.390;18.620;2022-12-18T00:09:22;80.90;;;40.93;;
18114;SDS011;9184;54.390;18.620;2022-12-18T00:09:54;80.90;;;41.27;;
18114;SDS011;9184;54.390;18.620;2022-12-18T00:10:26;85.30;;;41.35;;
18114;SDS011;9184;54.390;18.620;2022-12-18T00:11:02;78.97;;;40.20;;
18114;SDS011;9184;54.390;18.620;2022-12-18T00:11:33;85.03;;;43.67;;
18114;SDS011;9184;54.390;18.620;2022-12-18T00:12:06;83.63;;;42.38;;
18114;SDS011;9184;54.390;18.620;2022-12-18T00:12:37;81.03;;;40.97;;
18114;SDS011;9184;54.390;18.620;2022-12-18T00:13:08;91.93;;;42.58;;
18114;SDS011;9184;54.390;18.620;2022-12-18T00:13:39;82.40;;;43.17;;
18114;SDS011;9184;54.390;18.620;2022-12-18T00:14:10;87.80;;;42.87;;
18114;SDS011;9184;54.390;18.620;2022-12-18T00:14:41;90.13;;;44.53;;
18114;SDS011;9184;54.390;18.620;2022-12-18T00:15:12;95.17;;;44.77;;
18114;SDS011;9184;54.390;18.620;2022-12-18T00:15:43;85.63;;;44.95;;
18114;SDS011;9184;54.390;18.620;2022-12-18T00:16:14;92.10;;;44.27;;
18114;SDS011;9184;54.390;18.620;2022-12-18T00:16:45;86.05;;;42.72;;
18114;SDS011;9184;54.390;18.620;2022-12-18T00:17:17;85.75;;;42.67;;
18114;SDS011;9184;54.390;18.620;2022-12-18T00:17:47;107.87;;;46.13;;
18114;SDS011;9184;54.390;18.620;2022-12-18T00:18:18;88.73;;;46.27;;
18114;SDS011;9184;54.390;18.620;2022-12-18T00:18:50;95.68;;;46.28;;
18114;SDS011;9184;54.390;18.620;2022-12-18T00:19:21;90.38;;;43.47;;
18114;SDS011;9184;54.390;18.620;2022-12-18T00:19:52;80.43;;;41.93;;
18114;SDS011;9184;54.390;18.620;2022-12-18T00:20:24;85.15;;;43.70;;
18114;SDS011;9184;54.390;18.620;2022-12-18T00:20:58;86.40;;;45.33;;
18114;SDS011;9184;54.390;18.620;2022-12-18T00:21:29;90.78;;;44.85;;
18114;SDS011;9184;54.390;18.620;2022-12-18T00:22:01;96.00;;;43.47;;
18114;SDS011;9184;54.390;18.620;2022-12-18T00:22:31;87.73;;;43.70;;
18114;SDS011;9184;54.390;18.620;2022-12-18T00:23:03;89.00;;;45.92;;
18114;SDS011;9184;54.390;18.620;2022-12-18T00:23:33;95.20;;;46.43;;
18114;SDS011;9184;54.390;18.620;2022-12-18T00:24:04;88.60;;;42.83;;
18114;SDS011;9184;54.390;18.620;2022-12-18T00:24:36;88.35;;;43.95;;
18114;SDS011;9184;54.390;18.620;2022-12-18T00:25:07;85.03;;;43.03;;
18114;SDS011;9184;54.390;18.620;2022-12-18T00:25:37;91.80;;;42.90;;
18114;SDS011;9184;54.390;18.620;2022-12-18T00:26:10;94.63;;;45.22;;
18114;SDS011;9184;54.390;18.620;2022-12-18T00:26:41;87.35;;;44.47;;
18114;SDS011;9184;54.390;18.620;2022-12-18T00:27:13;87.50;;;44.15;;
18114;SDS011;9184;54.390;18.620;2022-12-18T00:27:44;87.78;;;44.72;;
18114;SDS011;9184;54.390;18.620;2022-12-18T00:28:15;81.40;;;44.67;;
18114;SDS011;9184;54.390;18.620;2022-12-18T00:28:45;92.57;;;43.47;;
18114;SDS011;9184;54.390;18.620;2022-12-18T00:29:17;86.47;;;42.90;;
18114;SDS011;9184;54.390;18.620;2022-12-18T00:29:47;96.77;;;43.93;;
18114;SDS011;9184;54.390;18.620;2022-12-18T00:30:18;88.30;;;43.07;;
18114;SDS011;9184;54.390;18.620;2022-12-18T00:30:49;88.03;;;43.58;;
18114;SDS011;9184;54.390;18.620;2022-12-18T00:31:22;84.65;;;43.47;;
18114;SDS011;9184;54.390;18.620;2022-12-18T00:31:53;86.43;;;41.92;;
18114;SDS011;9184;54.390;18.620;2022-12-18T00:32:25;84.60;;;41.78;;
18114;SDS011;9184;54.390;18.620;2022-12-18T00:32:55;81.30;;;41.40;;
18114;SDS011;9184;54.390;18.620;2022-12-18T00:33:26;86.80;;;44.37;;
18114;SDS011;9184;54.390;18.620;2022-12-18T00:33:56;81.30;;;41.93;;
18114;SDS011;9184;54.390;18.620;2022-12-18T00:34:28;91.10;;;44.17;;
18114;SDS011;9184;54.390;18.620;2022-12-18T00:34:58;113.47;;;45.63;;
18114;SDS011;9184;54.390;18.620;2022-12-18T00:35:29;97.10;;;43.60;;
18114;SDS011;9184;54.390;18.620;2022-12-18T00:36:00;93.32;;;44.35;;
18114;SDS011;9184;54.390;18.620;2022-12-18T00:36:32;80.60;;;42.20;;
18114;SDS011;9184;54.390;18.620;2022-12-18T00:37:03;89.15;;;44.28;;
18114;SDS011;9184;54.390;18.620;2022-12-18T00:37:34;91.05;;;42.38;;
18114;SDS011;9184;54.390;18.620;2022-12-18T00:38:05;90.93;;;42.50;;
18114;SDS011;9184;54.390;18.620;2022-12-18T00:38:36;85.57;;;42.28;;
18114;SDS011;9184;54.390;18.620;2022-12-18T00:39:07;92.17;;;43.13;;
18114;SDS011;9184;54.390;18.620;2022-12-18T00:39:38;94.32;;;43.78;;
18114;SDS011;9184;54.390;18.620;2022-12-18T00:40:09;94.90;;;42.30;;
18114;SDS011;9184;54.390;18.620;2022-12-18T00:40:40;92.10;;;42.22;;
18114;SDS011;9184;54.390;18.620;2022-12-18T00:41:11;75.43;;;38.13;;
18114;SDS011;9184;54.390;18.620;2022-12-18T00:41:43;68.50;;;38.67;;
18114;SDS011;9184;54.390;18.620;2022-12-18T00:42:33;87.60;;;40.90;;
18114;SDS011;9184;54.390;18.620;2022-12-18T00:43:22;84.28;;;39.60;;
18114;SDS011;9184;54.390;18.620;2022-12-18T00:43:53;77.63;;;39.43;;
18114;SDS011;9184;54.390;18.620;2022-12-18T00:44:23;75.27;;;38.53;;
18114;SDS011;9184;54.390;18.620;2022-12-18T00:44:54;75.70;;;37.10;;
18114;SDS011;9184;54.390;18.620;2022-12-18T00:45:25;83.50;;;39.20;;
18114;SDS011;9184;54.390;18.620;2022-12-18T00:45:56;74.93;;;37.93;;
18114;SDS011;9184;54.390;18.620;2022-12-18T00:46:26;77.80;;;38.83;;
18114;SDS011;9184;54.390;18.620;2022-12-18T00:46:57;81.47;;;38.07;;
18114;SDS011;9184;54.390;18.620;2022-12-18T00:47:28;112.28;;;42.17;;
18114;SDS011;9184;54.390;18.620;2022-12-18T00:48:01;84.40;;;38.83;;
18114;SDS011;9184;54.390;18.620;2022-12-18T00:48:32;79.25;;;36.67;;
18114;SDS011;9184;54.390;18.620;2022-12-18T00:49:03;78.28;;;39.00;;
18114;SDS011;9184;54.390;18.620;2022-12-18T00:49:34;70.43;;;37.63;;
18114;SDS011;9184;54.390;18.620;2022-12-18T00:50:06;80.97;;;37.80;;
18114;SDS011;9184;54.390;18.620;2022-12-18T00:50:37;79.95;;;37.55;;
18114;SDS011;9184;54.390;18.620;2022-12-18T00:51:07;73.10;;;39.13;;
18114;SDS011;9184;54.390;18.620;2022-12-18T00:51:38;75.32;;;36.90;;
18114;SDS011;9184;54.390;18.620;2022-12-18T00:52:09;94.33;;;38.10;;
18114;SDS011;9184;54.390;18.620;2022-12-18T00:52:39;73.97;;;38.23;;
18114;SDS011;9184;54.390;18.620;2022-12-18T00:53:11;69.18;;;35.95;;
18114;SDS011;9184;54.390;18.620;2022-12-18T00:53:42;93.17;;;37.23;;
18114;SDS011;9184;54.390;18.620;2022-12-18T00:54:12;84.13;;;37.20;;
18114;SDS011;9184;54.390;18.620;2022-12-18T00:54:44;90.68;;;37.40;;
18114;SDS011;9184;54.390;18.620;2022-12-18T00:55:14;86.53;;;37.60;;
18114;SDS011;9184;54.390;18.620;2022-12-18T00:55:45;69.40;;;37.13;;
18114;SDS011;9184;54.390;18.620;2022-12-18T00:56:15;82.23;;;36.00;;
18114;SDS011;9184;54.390;18.620;2022-12-18T00:56:47;71.97;;;35.85;;
18114;SDS011;9184;54.390;18.620;2022-12-18T00:57:17;68.60;;;36.30;;
18114;SDS011;9184;54.390;18.620;2022-12-18T00:57:49;72.17;;;34.73;;
18114;SDS011;9184;54.390;18.620;2022-12-18T00:58:21;68.75;;;34.70;;
18114;SDS011;9184;54.390;18.620;2022-12-18T00:58:52;71.77;;;34.30;;
18114;SDS011;9184;54.390;18.620;2022-12-18T00:59:22;74.33;;;36.37;;
18114;SDS011;9184;54.390;18.620;2022-12-18T00:59:54;81.80;;;37.28;;
18114;SDS011;9184;54.390;18.620;2022-12-18T01:00:25;72.93;;;36.30;;
18114;SDS011;9184;54.390;18.620;2022-12-18T01:00:55;67.90;;;33.63;;
18114;SDS011;9184;54.390;18.620;2022-12-18T01:01:26;73.78;;;34.85;;
18114;SDS011;9184;54.390;18.620;2022-12-18T01:01:57;72.60;;;34.97;;
18114;SDS011;9184;54.390;18.620;2022-12-18T01:02:30;64.75;;;33.90;;
18114;SDS011;9184;54.390;18.620;2022-12-18T01:03:02;68.55;;;35.90;;
18114;SDS011;9184;54.390;18.620;2022-12-18T01:03:32;96.57;;;36.10;;
18114;SDS011;9184;54.390;18.620;2022-12-18T01:04:03;101.90;;;39.67;;
18114;SDS011;9184;54.390;18.620;2022-12-18T01:04:35;77.38;;;36.80;;
18114;SDS011;9184;54.390;18.620;2022-12-18T01:05:05;72.23;;;34.90;;
18114;SDS011;9184;54.390;18.620;2022-12-18T01:05:38;72.90;;;34.83;;
18114;SDS011;9184;54.390;18.620;2022-12-18T01:06:11;81.05;;;34.97;;
18114;SDS011;9184;54.390;18.620;2022-12-18T01:06:42;72.35;;;36.15;;
18114;SDS011;9184;54.390;18.620;2022-12-18T01:07:12;72.90;;;35.43;;
18114;SDS011;9184;54.390;18.620;2022-12-18T01:07:42;68.50;;;34.37;;
18114;SDS011;9184;54.390;18.620;2022-12-18T01:08:14;72.53;;;35.25;;
18114;SDS011;9184;54.390;18.620;2022-12-18T01:08:44;73.87;;;36.10;;
18114;SDS011;9184;54.390;18.620;2022-12-18T01:09:15;72.30;;;36.80;;
18114;SDS011;9184;54.390;18.620;2022-12-18T01:09:46;79.28;;;39.08;;
18114;SDS011;9184;54.390;18.620;2022-12-18T01:10:17;74.43;;;36.73;;
18114;SDS011;9184;54.390;18.620;2022-12-18T01:10:47;82.67;;;38.50;;
18114;SDS011;9184;54.390;18.620;2022-12-18T01:11:18;80.13;;;37.50;;
18114;SDS011;9184;54.390;18.620;2022-12-18T01:11:50;86.72;;;37.17;;
18114;SDS011;9184;54.390;18.620;2022-12-18T01:12:21;74.90;;;35.73;;
18114;SDS011;9184;54.390;18.620;2022-12-18T01:12:52;86.93;;;36.93;;
18114;SDS011;9184;54.390;18.620;2022-12-18T01:13:24;71.90;;;34.75;;
18114;SDS011;9184;54.390;18.620;2022-12-18T01:13:54;76.80;;;39.20;;
18114;SDS011;9184;54.390;18.620;2022-12-18T01:14:25;99.63;;;39.17;;
18114;SDS011;9184;54.390;18.620;2022-12-18T01:14:56;77.85;;;38.42;;
18114;SDS011;9184;54.390;18.620;2022-12-18T01:15:27;92.63;;;38.57;;
18114;SDS011;9184;54.390;18.620;2022-12-18T01:15:57;81.73;;;36.67;;
18114;SDS011;9184;54.390;18.620;2022-12-18T01:16:28;86.30;;;38.77;;
18114;SDS011;9184;54.390;18.620;2022-12-18T01:16:59;85.03;;;38.45;;
18114;SDS011;9184;54.390;18.620;2022-12-18T01:17:32;74.22;;;37.17;;
18114;SDS011;9184;54.390;18.620;2022-12-18T01:18:03;78.53;;;38.33;;
18114;SDS011;9184;54.390;18.620;2022-12-18T01:18:34;83.15;;;39.85;;
18114;SDS011;9184;54.390;18.620;2022-12-18T01:19:05;76.33;;;38.93;;
18114;SDS011;9184;54.390;18.620;2022-12-18T01:19:35;80.23;;;39.20;;
18114;SDS011;9184;54.390;18.620;2022-12-18T01:20:07;83.07;;;38.35;;
18114;SDS011;9184;54.390;18.620;2022-12-18T01:20:38;247.52;;;52.70;;
18114;SDS011;9184;54.390;18.620;2022-12-18T01:21:09;80.17;;;37.37;;
18114;SDS011;9184;54.390;18.620;2022-12-18T01:21:40;155.33;;;44.20;;
18114;SDS011;9184;54.390;18.620;2022-12-18T01:22:11;96.13;;;40.30;;
18114;SDS011;9184;54.390;18.620;2022-12-18T01:22:42;93.77;;;40.90;;
18114;SDS011;9184;54.390;18.620;2022-12-18T01:23:12;84.93;;;39.60;;
18114;SDS011;9184;54.390;18.620;2022-12-18T01:23:42;86.53;;;39.60;;
18114;SDS011;9184;54.390;18.620;2022-12-18T01:24:14;144.35;;;44.78;;
18114;SDS011;9184;54.390;18.620;2022-12-18T01:24:44;101.60;;;41.33;;
18114;SDS011;9184;54.390;18.620;2022-12-18T01:25:15;115.00;;;39.83;;
18114;SDS011;9184;54.390;18.620;2022-12-18T01:25:46;95.57;;;41.53;;
18114;SDS011;9184;54.390;18.620;2022-12-18T01:26:17;81.10;;;38.83;;
18114;SDS011;9184;54.390;18.620;2022-12-18T01:26:47;93.27;;;38.93;;
18114;SDS011;9184;54.390;18.620;2022-12-18T01:27:18;77.00;;;37.03;;
18114;SDS011;9184;54.390;18.620;2022-12-18T01:27:49;94.22;;;42.75;;
18114;SDS011;9184;54.390;18.620;2022-12-18T01:28:21;95.77;;;40.87;;
18114;SDS011;9184;54.390;18.620;2022-12-18T01:28:53;89.00;;;41.08;;
18114;SDS011;9184;54.390;18.620;2022-12-18T01:29:23;94.72;;;41.08;;
18114;SDS011;9184;54.390;18.620;2022-12-18T01:29:55;86.47;;;40.75;;
18114;SDS011;9184;54.390;18.620;2022-12-18T01:30:26;89.07;;;42.53;;
18114;SDS011;9184;54.390;18.620;2022-12-18T01:30:56;84.03;;;39.77;;
18114;SDS011;9184;54.390;18.620;2022-12-18T01:31:28;164.65;;;47.10;;
18114;SDS011;9184;54.390;18.620;2022-12-18T01:31:59;86.75;;;40.35;;
18114;SDS011;9184;54.390;18.620;2022-12-18T01:32:29;95.67;;;41.97;;
18114;SDS011;9184;54.390;18.620;2022-12-18T01:33:01;110.50;;;42.22;;
18114;SDS011;9184;54.390;18.620;2022-12-18T01:33:33;90.40;;;42.85;;
18114;SDS011;9184;54.390;18.620;2022-12-18T01:34:04;89.97;;;42.67;;
18114;SDS011;9184;54.390;18.620;2022-12-18T01:34:35;97.27;;;43.73;;
18114;SDS011;9184;54.390;18.620;2022-12-18T01:35:07;111.30;;;47.20;;
18114;SDS011;9184;54.390;18.620;2022-12-18T01:35:41;97.80;;;46.13;;
18114;SDS011;9184;54.390;18.620;2022-12-18T01:36:16;92.13;;;43.63;;
18114;SDS011;9184;54.390;18.620;2022-12-18T01:36:48;91.95;;;43.90;;
18114;SDS011;9184;54.390;18.620;2022-12-18T01:37:18;99.70;;;45.77;;
18114;SDS011;9184;54.390;18.620;2022-12-18T01:37:49;93.30;;;43.97;;
18114;SDS011;9184;54.390;18.620;2022-12-18T01:38:21;101.65;;;46.72;;
18114;SDS011;9184;54.390;18.620;2022-12-18T01:38:51;103.53;;;46.33;;
18114;SDS011;9184;54.390;18.620;2022-12-18T01:39:22;94.50;;;42.37;;
18114;SDS011;9184;54.390;18.620;2022-12-18T01:39:54;94.22;;;45.17;;
18114;SDS011;9184;54.390;18.620;2022-12-18T01:40:24;109.80;;;48.27;;
18114;SDS011;9184;54.390;18.620;2022-12-18T01:40:56;93.07;;;43.83;;
18114;SDS011;9184;54.390;18.620;2022-12-18T01:41:28;145.02;;;46.97;;
18114;SDS011;9184;54.390;18.620;2022-12-18T01:42:20;91.15;;;43.33;;
18114;SDS011;9184;54.390;18.620;2022-12-18T01:42:51;95.20;;;45.53;;
18114;SDS011;9184;54.390;18.620;2022-12-18T01:43:40;104.43;;;45.13;;
18114;SDS011;9184;54.390;18.620;2022-12-18T01:44:59;95.50;;;42.75;;
18114;SDS011;9184;54.390;18.620;2022-12-18T01:45:31;87.00;;;41.35;;
18114;SDS011;9184;54.390;18.620;2022-12-18T01:46:02;83.53;;;40.92;;
18114;SDS011;9184;54.390;18.620;2022-12-18T01:46:33;194.10;;;50.40;;
18114;SDS011;9184;54.390;18.620;2022-12-18T01:47:03;95.47;;;42.73;;
18114;SDS011;9184;54.390;18.620;2022-12-18T01:47:38;100.57;;;42.70;;
18114;SDS011;9184;54.390;18.620;2022-12-18T01:48:10;90.28;;;43.92;;
18114;SDS011;9184;54.390;18.620;2022-12-18T01:48:40;97.30;;;43.63;;
18114;SDS011;9184;54.390;18.620;2022-12-18T01:49:11;103.87;;;44.03;;
18114;SDS011;9184;54.390;18.620;2022-12-18T01:49:42;92.95;;;42.85;;
18114;SDS011;9184;54.390;18.620;2022-12-18T01:50:13;91.13;;;42.90;;
18114;SDS011;9184;54.390;18.620;2022-12-18T01:50:45;88.22;;;41.17;;
18114;SDS011;9184;54.390;18.620;2022-12-18T01:51:15;90.57;;;42.30;;
18114;SDS011;9184;54.390;18.620;2022-12-18T01:51:47;89.95;;;41.53;;
18114;SDS011;9184;54.390;18.620;2022-12-18T01:52:17;102.77;;;45.63;;
18114;SDS011;9184;54.390;18.620;2022-12-18T01:52:50;97.13;;;44.10;;
18114;SDS011;9184;54.390;18.620;2022-12-18T01:53:21;191.98;;;53.13;;
18114;SDS011;9184;54.390;18.620;2022-12-18T01:53:53;100.45;;;45.17;;
18114;SDS011;9184;54.390;18.620;2022-12-18T01:54:24;127.33;;;47.67;;
18114;SDS011;9184;54.390;18.620;2022-12-18T01:54:58;102.80;;;45.70;;
18114;SDS011;9184;54.390;18.620;2022-12-18T01:55:32;102.20;;;44.80;;
18114;SDS011;9184;54.390;18.620;2022-12-18T01:56:05;86.97;;;44.20;;
18114;SDS011;9184;54.390;18.620;2022-12-18T01:56:36;117.63;;;46.85;;
18114;SDS011;9184;54.390;18.620;2022-12-18T01:57:08;102.55;;;44.85;;
18114;SDS011;9184;54.390;18.620;2022-12-18T01:57:39;91.90;;;44.70;;
18114;SDS011;9184;54.390;18.620;2022-12-18T01:58:10;98.77;;;44.33;;
18114;SDS011;9184;54.390;18.620;2022-12-18T01:58:56;99.25;;;43.75;;
18114;SDS011;9184;54.390;18.620;2022-12-18T01:59:28;94.78;;;43.15;;
18114;SDS011;9184;54.390;18.620;2022-12-18T02:00:03;93.53;;;43.30;;
18114;SDS011;9184;54.390;18.620;2022-12-18T02:00:35;99.35;;;43.95;;
18114;SDS011;9184;54.390;18.620;2022-12-18T02:01:05;96.13;;;44.40;;
18114;SDS011;9184;54.390;18.620;2022-12-18T02:01:35;94.27;;;42.70;;
18114;SDS011;9184;54.390;18.620;2022-12-18T02:02:08;90.95;;;42.45;;
18114;SDS011;9184;54.390;18.620;2022-12-18T02:02:38;97.87;;;41.63;;
18114;SDS011;9184;54.390;18.620;2022-12-18T02:03:09;112.90;;;42.90;;
18114;SDS011;9184;54.390;18.620;2022-12-18T02:03:41;89.20;;;41.40;;
18114;SDS011;9184;54.390;18.620;2022-12-18T02:04:20;85.45;;;40.35;;
18114;SDS011;9184;54.390;18.620;2022-12-18T02:04:50;93.03;;;43.28;;
18114;SDS011;9184;54.390;18.620;2022-12-18T02:05:22;95.90;;;43.13;;
18114;SDS011;9184;54.390;18.620;2022-12-18T02:05:57;90.00;;;41.65;;
18114;SDS011;9184;54.390;18.620;2022-12-18T02:06:32;85.15;;;40.35;;
18114;SDS011;9184;54.390;18.620;2022-12-18T02:07:05;85.38;;;40.92;;
18114;SDS011;9184;54.390;18.620;2022-12-18T02:07:42;85.55;;;41.00;;
18114;SDS011;9184;54.390;18.620;2022-12-18T02:08:18;84.10;;;38.92;;
18114;SDS011;9184;54.390;18.620;2022-12-18T02:08:59;83.78;;;38.15;;
18114;SDS011;9184;54.390;18.620;2022-12-18T02:09:31;96.70;;;40.70;;
18114;SDS011;9184;54.390;18.620;2022-12-18T02:10:06;90.32;;;39.67;;
18114;SDS011;9184;54.390;18.620;2022-12-18T02:10:41;83.18;;;41.13;;
18114;SDS011;9184;54.390;18.620;2022-12-18T02:11:15;85.75;;;39.67;;
18114;SDS011;9184;54.390;18.620;2022-12-18T02:11:49;80.25;;;39.95;;
18114;SDS011;9184;54.390;18.620;2022-12-18T02:12:23;85.97;;;40.55;;
18114;SDS011;9184;54.390;18.620;2022-12-18T02:12:57;92.03;;;39.33;;
18114;SDS011;9184;54.390;18.620;2022-12-18T02:13:32;83.75;;;36.22;;
18114;SDS011;9184;54.390;18.620;2022-12-18T02:14:10;80.32;;;36.88;;
18114;SDS011;9184;54.390;18.620;2022-12-18T02:14:44;77.82;;;37.35;;
18114;SDS011;9184;54.390;18.620;2022-12-18T02:15:18;83.55;;;37.83;;
18114;SDS011;9184;54.390;18.620;2022-12-18T02:15:51;84.57;;;38.55;;
18114;SDS011;9184;54.390;18.620;2022-12-18T02:16:27;77.68;;;35.67;;
18114;SDS011;9184;54.390;18.620;2022-12-18T02:17:01;76.10;;;36.70;;
18114;SDS011;9184;54.390;18.620;2022-12-18T02:17:35;77.43;;;37.05;;
18114;SDS011;9184;54.390;18.620;2022-12-18T02:18:07;73.13;;;36.05;;
18114;SDS011;9184;54.390;18.620;2022-12-18T02:18:42;78.63;;;37.20;;
18114;SDS011;9184;54.390;18.620;2022-12-18T02:19:18;81.88;;;36.58;;
18114;SDS011;9184;54.390;18.620;2022-12-18T02:19:57;82.93;;;39.20;;
18114;SDS011;9184;54.390;18.620;2022-12-18T02:20:34;325.38;;;113.78;;
18114;SDS011;9184;54.390;18.620;2022-12-18T02:21:08;272.02;;;112.95;;
18114;SDS011;9184;54.390;18.620;2022-12-18T02:21:44;123.50;;;46.72;;
18114;SDS011;9184;54.390;18.620;2022-12-18T02:22:22;171.43;;;70.35;;
18114;SDS011;9184;54.390;18.620;2022-12-18T02:23:00;92.10;;;43.63;;
18114;SDS011;9184;54.390;18.620;2022-12-18T02:23:36;138.55;;;62.30;;
18114;SDS011;9184;54.390;18.620;2022-12-18T02:24:16;119.88;;;56.75;;
18114;SDS011;9184;54.390;18.620;2022-12-18T02:24:51;108.35;;;52.28;;
18114;SDS011;9184;54.390;18.620;2022-12-18T02:25:29;97.38;;;49.80;;
18114;SDS011;9184;54.390;18.620;2022-12-18T02:26:09;72.78;;;36.55;;
18114;SDS011;9184;54.390;18.620;2022-12-18T02:26:44;92.00;;;46.17;;
18114;SDS011;9184;54.390;18.620;2022-12-18T02:27:16;77.85;;;38.45;;
18114;SDS011;9184;54.390;18.620;2022-12-18T02:27:49;82.22;;;43.95;;
18114;SDS011;9184;54.390;18.620;2022-12-18T02:28:21;71.30;;;36.95;;
18114;SDS011;9184;54.390;18.620;2022-12-18T02:28:55;75.13;;;38.95;;
18114;SDS011;9184;54.390;18.620;2022-12-18T02:29:29;74.65;;;38.88;;
18114;SDS011;9184;54.390;18.620;2022-12-18T02:30:00;87.50;;;47.70;;
18114;SDS011;9184;54.390;18.620;2022-12-18T02:30:31;75.22;;;37.53;;
18114;SDS011;9184;54.390;18.620;2022-12-18T02:31:04;80.70;;;38.85;;
18114;SDS011;9184;54.390;18.620;2022-12-18T02:31:39;83.07;;;44.15;;
18114;SDS011;9184;54.390;18.620;2022-12-18T02:32:11;70.22;;;36.90;;
18114;SDS011;9184;54.390;18.620;2022-12-18T02:32:45;78.78;;;36.22;;
18114;SDS011;9184;54.390;18.620;2022-12-18T02:33:17;66.80;;;34.67;;
18114;SDS011;9184;54.390;18.620;2022-12-18T02:33:49;76.05;;;34.78;;
18114;SDS011;9184;54.390;18.620;2022-12-18T02:34:21;73.18;;;34.58;;
18114;SDS011;9184;54.390;18.620;2022-12-18T02:34:54;67.25;;;36.00;;
18114;SDS011;9184;54.390;18.620;2022-12-18T02:35:27;72.90;;;35.65;;
18114;SDS011;9184;54.390;18.620;2022-12-18T02:35:59;179.15;;;85.57;;
18114;SDS011;9184;54.390;18.620;2022-12-18T02:36:30;216.32;;;101.80;;
18114;SDS011;9184;54.390;18.620;2022-12-18T02:37:03;114.40;;;56.38;;
18114;SDS011;9184;54.390;18.620;2022-12-18T02:37:36;103.60;;;47.80;;
18114;SDS011;9184;54.390;18.620;2022-12-18T02:38:09;78.28;;;38.25;;
18114;SDS011;9184;54.390;18.620;2022-12-18T02:38:40;111.27;;;63.60;;
18114;SDS011;9184;54.390;18.620;2022-12-18T02:39:12;104.70;;;60.08;;
18114;SDS011;9184;54.390;18.620;2022-12-18T02:39:44;90.82;;;51.97;;
18114;SDS011;9184;54.390;18.620;2022-12-18T02:40:16;99.97;;;55.50;;
18114;SDS011;9184;54.390;18.620;2022-12-18T02:40:48;202.77;;;129.60;;
18114;SDS011;9184;54.390;18.620;2022-12-18T02:41:21;129.55;;;85.32;;
18114;SDS011;9184;54.390;18.620;2022-12-18T02:41:52;82.38;;;44.65;;
18114;SDS011;9184;54.390;18.620;2022-12-18T02:42:23;82.07;;;41.70;;
18114;SDS011;9184;54.390;18.620;2022-12-18T02:42:54;81.07;;;38.73;;
18114;SDS011;9184;54.390;18.620;2022-12-18T02:43:24;77.63;;;40.83;;
18114;SDS011;9184;54.390;18.620;2022-12-18T02:43:56;71.45;;;37.60;;
18114;SDS011;9184;54.390;18.620;2022-12-18T02:44:27;88.40;;;43.45;;
18114;SDS011;9184;54.390;18.620;2022-12-18T02:44:58;124.87;;;76.70;;
18114;SDS011;9184;54.390;18.620;2022-12-18T02:45:28;115.07;;;72.27;;
18114;SDS011;9184;54.390;18.620;2022-12-18T02:46:00;190.90;;;131.63;;
18114;SDS011;9184;54.390;18.620;2022-12-18T02:46:32;488.60;;;408.80;;
18114;SDS011;9184;54.390;18.620;2022-12-18T02:47:04;289.38;;;242.98;;
18114;SDS011;9184;54.390;18.620;2022-12-18T02:47:36;92.43;;;54.88;;
18114;SDS011;9184;54.390;18.620;2022-12-18T02:48:08;157.75;;;110.10;;
18114;SDS011;9184;54.390;18.620;2022-12-18T02:48:38;101.10;;;64.93;;
18114;SDS011;9184;54.390;18.620;2022-12-18T02:49:12;86.30;;;46.65;;
18114;SDS011;9184;54.390;18.620;2022-12-18T02:49:47;72.90;;;37.63;;
18114;SDS011;9184;54.390;18.620;2022-12-18T02:50:23;81.72;;;41.60;;
18114;SDS011;9184;54.390;18.620;2022-12-18T02:50:58;78.28;;;38.95;;
18114;SDS011;9184;54.390;18.620;2022-12-18T02:51:30;64.03;;;35.80;;
18114;SDS011;9184;54.390;18.620;2022-12-18T02:52:05;74.90;;;43.58;;
18114;SDS011;9184;54.390;18.620;2022-12-18T02:52:39;73.45;;;40.45;;
18114;SDS011;9184;54.390;18.620;2022-12-18T02:53:14;65.35;;;31.17;;
18114;SDS011;9184;54.390;18.620;2022-12-18T02:53:48;68.03;;;33.70;;
18114;SDS011;9184;54.390;18.620;2022-12-18T02:54:35;64.95;;;32.75;;
18114;SDS011;9184;54.390;18.620;2022-12-18T02:55:11;63.35;;;32.97;;
18114;SDS011;9184;54.390;18.620;2022-12-18T02:55:48;67.05;;;31.40;;
18114;SDS011;9184;54.390;18.620;2022-12-18T02:56:23;71.10;;;33.63;;
18114;SDS011;9184;54.390;18.620;2022-12-18T02:56:57;64.18;;;31.50;;
18114;SDS011;9184;54.390;18.620;2022-12-18T02:57:31;64.60;;;31.30;;
18114;SDS011;9184;54.390;18.620;2022-12-18T02:58:04;69.82;;;31.48;;
18114;SDS011;9184;54.390;18.620;2022-12-18T02:58:37;70.43;;;31.33;;
18114;SDS011;9184;54.390;18.620;2022-12-18T02:59:12;61.22;;;31.08;;
18114;SDS011;9184;54.390;18.620;2022-12-18T02:59:45;64.22;;;31.25;;
18114;SDS011;9184;54.390;18.620;2022-12-18T03:00:18;67.32;;;32.15;;
18114;SDS011;9184;54.390;18.620;2022-12-18T03:00:51;60.00;;;30.60;;
18114;SDS011;9184;54.390;18.620;2022-12-18T03:01:24;62.85;;;29.98;;
18114;SDS011;9184;54.390;18.620;2022-12-18T03:01:57;65.68;;;30.52;;
18114;SDS011;9184;54.390;18.620;2022-12-18T03:02:30;58.85;;;28.45;;
18114;SDS011;9184;54.390;18.620;2022-12-18T03:03:05;61.15;;;30.17;;
18114;SDS011;9184;54.390;18.620;2022-12-18T03:03:38;76.05;;;31.52;;
18114;SDS011;9184;54.390;18.620;2022-12-18T03:04:11;60.42;;;29.27;;
18114;SDS011;9184;54.390;18.620;2022-12-18T03:04:43;63.55;;;29.27;;
18114;SDS011;9184;54.390;18.620;2022-12-18T03:05:15;61.75;;;29.23;;
18114;SDS011;9184;54.390;18.620;2022-12-18T03:05:48;59.65;;;30.80;;
18114;SDS011;9184;54.390;18.620;2022-12-18T03:06:20;61.35;;;28.58;;
18114;SDS011;9184;54.390;18.620;2022-12-18T03:06:54;59.20;;;29.65;;
18114;SDS011;9184;54.390;18.620;2022-12-18T03:07:28;54.67;;;28.40;;
18114;SDS011;9184;54.390;18.620;2022-12-18T03:08:05;58.28;;;27.92;;
18114;SDS011;9184;54.390;18.620;2022-12-18T03:08:36;51.22;;;27.63;;
18114;SDS011;9184;54.390;18.620;2022-12-18T03:09:09;63.72;;;30.05;;
18114;SDS011;9184;54.390;18.620;2022-12-18T03:09:42;60.40;;;27.98;;